Terminal Aerodrome Forecast
Issued by NWS

Home | Current Version | Previous Version | Text Only | Print | Product List | Glossary On
Versions: 1 2 3 4 5 6 7 8 9 10 11 12 13 14 15 16 17 18 19 20 21 22 23 24
947
FTUS44 KOUN 221741
TAFPNC
TAF
KPNC 221741Z 2218/2318 33018G27KT P6SM -RA OVC015
      TEMPO 2218/2222 4SM -RA OVC008
     FM222300 33017G25KT P6SM OVC020
     FM230500 33014KT P6SM OVC030=

USA.gov is the U.S. government's official web portal to all federal, state and local government web resources and services.